Humidity-temperature Sensor

Selected Measurement Type: Air Temperature

 
Air Temperature [°C]     6 entries per hour
Showing data from 8/24/2018 (00:00:00 Z) to 8/21/2018 (00:01:00 Z)
Previous Next [ Day | 3-Days | 7-Days ]
First Last
Prev [ Day | 3-Days | 7-Days ] Next
First Last

Start Time:     :
End Time:     :     
Time (in GMT) :00 :50 :40 :30 :20 :10
Previous Next [ Day | 3-Days | 7-Days ]
First Last
Prev [ Day | 3-Days | 7-Days ] Next
First Last


123 => good data
MM => data is determined as missing
-- => data not received/configured
Back to Top Back to Top
8/24/2018 00:00 to 23:10 28.14 28.15 28.11 28.05 28.02 28.07
8/23/2018 23:00 to 22:10 28.05 28.10 28.14 28.05 28.10 28.00
8/23/2018 22:00 to 21:10 28.08 28.04 27.99 28.07 28.06 28.06
8/23/2018 21:00 to 20:10 28.11 28.09 28.14 28.06 28.09 28.14
8/23/2018 20:00 to 19:10 28.06 28.13 28.20 28.39 28.39 28.25
8/23/2018 19:00 to 18:10 28.08 28.26 28.00 27.90 27.82 27.73
8/23/2018 18:00 to 17:10 27.66 27.60 27.55 27.51 27.59 27.50
8/23/2018 17:00 to 16:10 27.53 27.52 27.53 27.46 27.37 27.39
8/23/2018 16:00 to 15:10 27.44 27.29 27.25 27.24 27.24 27.19
8/23/2018 15:00 to 14:10 27.19 27.09 27.02 27.07 27.03 26.95
8/23/2018 14:00 to 13:10 26.97 26.89 26.89 26.79 26.87 26.79
8/23/2018 13:00 to 12:10 26.83 26.89 26.97 26.85 26.79 26.75
8/23/2018 12:00 to 11:10 26.73 26.67 26.66 26.52 26.47 26.49
8/23/2018 11:00 to 10:10 26.56 26.45 26.45 26.43 26.38 26.37
8/23/2018 10:00 to 9:10 26.23 26.29 26.23 26.11 26.16 26.06
8/23/2018 09:00 to 8:10 25.95 25.92 25.86 25.82 25.82 25.85
8/23/2018 08:00 to 7:10 25.77 25.68 25.59 25.33 25.50 25.39
8/23/2018 07:00 to 6:10 25.47 25.50 25.38 25.25 25.25 25.36
8/23/2018 06:00 to 5:10 25.24 25.27 24.95 25.05 25.22 24.95
8/23/2018 05:00 to 4:10 24.99 25.26 25.33 25.12 25.31 25.37
8/23/2018 04:00 to 3:10 25.43 25.36 24.74 24.84 24.78 25.14
8/23/2018 03:00 to 2:10 25.65 26.45 26.32 26.33 26.66 26.94
8/23/2018 02:00 to 1:10 27.03 27.06 27.04 26.85 26.68 26.61
8/23/2018 01:00 to 0:10 26.69 26.74 26.47 26.77 26.45 26.18
8/23/2018 00:00 to 23:10 26.29 26.47 26.38 26.38 26.03 25.95
8/22/2018 23:00 to 22:10 25.97 25.97 25.96 26.55 26.36 26.32
8/22/2018 22:00 to 21:10 26.63 26.58 26.72 26.64 26.55 26.53
8/22/2018 21:00 to 20:10 26.61 26.36 26.32 26.33 26.34 26.30
8/22/2018 20:00 to 19:10 26.32 26.29 26.15 26.18 25.95 25.99
8/22/2018 19:00 to 18:10 26.01 25.99 26.11 26.03 25.99 25.94
8/22/2018 18:00 to 17:10 25.95 25.89 25.72 25.79 25.50 25.50
8/22/2018 17:00 to 16:10 25.22 25.31 25.26 25.23 24.99 25.01
8/22/2018 16:00 to 15:10 24.92 25.26 24.98 24.68 24.61 24.75
8/22/2018 15:00 to 14:10 24.66 24.74 24.74 24.96 25.07 25.09
8/22/2018 14:00 to 13:10 24.78 24.84 24.93 25.11 25.24 25.35
8/22/2018 13:00 to 12:10 25.51 25.84 25.89 26.13 26.62 26.54
8/22/2018 12:00 to 11:10 27.00 26.94 26.86 26.85 26.86 26.92
8/22/2018 11:00 to 10:10 26.72 26.69 26.80 26.65 26.63 26.95
8/22/2018 10:00 to 9:10 27.46 27.77 27.64 27.55 27.43 27.42
8/22/2018 09:00 to 8:10 27.33 27.41 27.21 27.27 27.05 26.80
8/22/2018 08:00 to 7:10 26.90 26.83 26.80 26.50 26.44 26.68
8/22/2018 07:00 to 6:10 26.99 27.01 27.45 28.06 28.04 28.60
8/22/2018 06:00 to 5:10 28.53 28.47 28.39 28.46 28.57 28.66
8/22/2018 05:00 to 4:10 29.02 29.22 29.37 29.76 29.11 29.15
8/22/2018 04:00 to 3:10 29.35 28.98 28.51 28.40 28.25 28.43
8/22/2018 03:00 to 2:10 28.97 29.03 28.83 28.81 28.75 28.62
8/22/2018 02:00 to 1:10 28.59 28.54 28.44 28.36 28.19 28.27
8/22/2018 01:00 to 0:10 28.30 28.15 27.96 28.18 28.50 28.52
8/22/2018 00:00 to 23:10 28.45 28.42 28.37 28.30 27.22 27.48
8/21/2018 23:00 to 22:10 28.77 28.79 28.56 28.47 28.78 28.75
8/21/2018 22:00 to 21:10 28.73 28.74 28.66 28.80 28.76 28.70
8/21/2018 21:00 to 20:10 28.61 28.54 28.59 28.45 28.48 28.50
8/21/2018 20:00 to 19:10 28.41 28.37 28.29 28.36 28.44 28.10
8/21/2018 19:00 to 18:10 28.09 28.23 28.30 28.41 28.57 28.56
8/21/2018 18:00 to 17:10 28.34 28.87 28.61 28.39 28.47 28.25
8/21/2018 17:00 to 16:10 28.37 28.20 28.21 28.24 28.21 28.24
8/21/2018 16:00 to 15:10 28.22 28.30 28.24 28.26 28.24 28.24
8/21/2018 15:00 to 14:10 28.27 28.21 28.26 28.19 28.14 28.09
8/21/2018 14:00 to 13:10 28.08 28.08 28.11 27.98 28.05 27.96
8/21/2018 13:00 to 12:10 27.99 28.01 27.98 27.97 27.96 28.04
8/21/2018 12:00 to 11:10 28.02 28.05 28.07 28.07 28.13 28.22
8/21/2018 11:00 to 10:10 28.26 28.12 28.04 28.03 28.00 27.91
8/21/2018 10:00 to 9:10 27.93 27.89 27.91 27.83 27.83 27.77
8/21/2018 09:00 to 8:10 27.82 27.72 27.84 27.90 27.91 27.97
8/21/2018 08:00 to 7:10 28.11 28.09 28.04 28.04 28.12 27.98
8/21/2018 07:00 to 6:10 27.95 27.98 28.06 28.01 27.94 27.87
8/21/2018 06:00 to 5:10 27.86 27.79 27.77 27.78 27.70 27.75
8/21/2018 05:00 to 4:10 27.76 27.66 27.62 27.59 27.46 27.43
8/21/2018 04:00 to 3:10 27.37 27.38 27.36 27.34 27.18 27.15
8/21/2018 03:00 to 2:10 27.11 27.13 27.00 26.96 27.01 26.93
8/21/2018 02:00 to 1:10 27.03 27.06 26.85 26.69 25.98 25.89
8/21/2018 01:00 to 0:10 26.29 26.05 26.64 28.86 28.89 28.91